Create Custom Reports and Graphics: Custom Report

Lodi Weather Stations Latest Observations

Map

15 Minute Data

Lodi West

10 Stations

15 Minute Data | America/Los_Angeles
as of 8/9/20 6:28 PM PDT
Station Date Time Temp (°F) Dew Pt (°F) RH (%) Wind Spd (mph) Wind Dir (°) Wind Gust (mph) Latest Rain (In) Daily Rain (In) Daily Min Temp (°F) Daily Max Temp (°F)
Guard Rd (Lodi WSW) 8/9/20 1815 91.5   6.0 60.0   2.2 35   11 5.6   0.5 WSW | 255 12.8   1.9 0.00 0.00 56.3   0.8 98.2   3.9
Utter - Wilson 8/9/20 1815 96.9   4.1 58.2   2.8 28   7 5.7   0.8 SSW | 211 10.6   2.0 0.00 0.00 61.9   2.1 101.9   5.4
Clarksburg 8/9/20 1815 95.7   3.9 57.8   1.6 28   5 4.1   0.6 SW | 228 10.4   0.6 0.00 0.00 61.6   2.4 103.7   4.6
Clarksburg-3A2 8/9/20 1815 96.3   5.4 57.4   2.6 27   8 9.2   0.2 SSW | 211 13.4   0.8 0.00 0.00 62.5   2.0 100.4   3.7
Gorter - Wilson 8/9/20 1815 95.7   5.0 60.2   1.9 31   8 5.0   0.7 SW | 223 8.9   0.8 0.00 0.00 62.2   2.4 102.0   5.5
Hood 8/9/20 1815 93.4   5.2 59.9   1.8 33   8 4.5   0.9 SW | 227 9.9   0.8 0.00 0.00 62.1   5.0 97.4   4.2
Courtland-C3 8/9/20 1815 96.9   7.2 60.2   0.5 30   8 4.2   1.7 WSW | 252 8.9   5.0 0.00 0.00 59.0   0.3 99.4   3.8
Pacific Fruit 8/9/20 1815 93.4   5.3 62.5   0.2 36   7 5.8   1.1 WSW | 247 11.1   3.5 0.00 0.00 58.9   2.9 99.0   4.5
Ryer Island South 8/9/20 1800 93.8   4.6 53.7   3.3 26   8 5.4   1.0 WSW | 252 12.5   0.4 0.00 0.00 62.0   1.4 99.5   4.5
Claussen 8/9/20 1815 94.6   3.4 62.0   3.3 34   8 4.3   0.2 NW | 322 8.1   1.8 0.00 0.00 61.0   0.0 99.6   2.3
Max     96.9 62.5 36 9.2 - 13.4 0.00 0.00 62.5 103.7
Avg     94.8 59.2 31 5.4 - 10.7 0.00 - - -
Min     91.5 53.7 26 4.1 - 8.1 0.00 0.00 56.3 97.4

Lodi Central

9 Stations

15 Minute Data | America/Los_Angeles
as of 8/9/20 6:28 PM PDT
Station Date Time Temp (°F) Dew Pt (°F) RH (%) Wind Dir (°) Wind Spd (mph) Wind Gust (mph) Latest Rain (In) Daily Rain (In) Daily Min Temp (°F) Daily Max Temp (°F)
Galt West 8/9/20 1815 97.2   8.5 59.2   3.5 29   14 WSW | 256 5.2   0.5 9.9   1.2 0.00 0.00 58.3   1.1 99.1   3.3
Valley Oak 8/9/20 1815 97.8   7.4 53.6   3.0 23   9 W | 272 5.1   0.6 9.0   2.8 0.00 0.00 58.5   2.1 100.4   4.2
Thornton 8/9/20 1815 96.8   6.8 56.4   2.8 26   10 SW | 232 5.3   0.5 10.5   0.0 0.00 0.00 59.9   2.6 98.7   4.0
Kost Rd 8/9/20 1815 96.8   8.6 62.6   0.1 33   10 SW | 231 3.2   0.2 6.4   1.1 0.00 0.00 58.2   1.5 99.2   3.6
DeVries Road-North 8/9/20 1815 98.8   8.6 59.2   1.4 27   10 W | 261 5.1   0.4 9.4   0.0 0.00 0.00 58.8   0.6 100.2   3.4
Lodi (LangeTwins) 8/9/20 1815 99.0   8.5 58.9   1.9 27   10 W | 260 4.3   1.2 9.5   2.0 0.00 0.00 59.4   0.7 99.8   3.1
Acampo 8/9/20 1815 96.2   6.7 56.0   2.3 26   9 W | 269 4.3   0.2 8.4   1.0 0.00 0.00 58.9   0.0 98.0   2.8
Acampo (Woodbridge) 8/9/20 1815 98.2   5.7 55.6   3.6 24   9 W | 263 6.9   1.2 10.3   1.8 0.00 0.00 61.7   0.1 99.0   3.0
Lodi West 7/13/20 0815 70.3   2.5 55.4   7.0 59   17 NW | 319 1.6   0.8 4.4   2.9 0.00 0.00 60.0   1.6 71.2   2.3
Max     99.0 62.6 33 - 6.9 10.5 0.00 0.00 61.7 100.4
Avg     97.6 57.7 27 - 4.9 9.2 0.00 - - -
Min     96.2 53.6 23 - 3.2 6.4 0.00 0.00 58.2 98.0

Lodi South

18 Stations

15 Minute Data | America/Los_Angeles
as of 8/9/20 6:28 PM PDT
Station Date Time Temp (°F) Dew Pt (°F) RH (%) Wind Spd (mph) Wind Dir (°) Wind Gust (mph) Latest Rain (In) Daily Rain (In) Daily Min Temp (°F) Daily Max Temp (°F)
Borden Hills 8/9/20 1815 100.2   5.0 61.2   3.1 28   1 6.0   0.7 WSW | 245 9.1   1.5 0.00 0.00 63.7   2.5 102.9   4.5
Collegeville 8/9/20 1815 97.8   2.2 61.6   2.4 31   1 1.7   0.0 WNW | 295 4.8   0.8 0.00 0.00 59.8   1.1 100.0   2.8
Galt-East 8/9/20 1815 99.1   5.0 53.7   0.8 22   4 5.2   0.6 WSW | 257 10.1   1.8 0.00 0.00 61.3   1.0 100.1   3.5
Escalon 8/9/20 1815 96.3   1.1 60.2   2.9 30   2 3.9   2.2 WNW | 282 6.4   2.7 0.00 0.00 63.1   3.7 100.0   3.4
Victor - N (Katusha) 8/9/20 1815 97.5   4.6 53.3   4.1 23   8 3.8   0.7 W | 274 7.8   2.0 0.00 0.00 60.0   1.6 99.0   3.1
Teresi-Alpine Rd (East Lodi) 8/9/20 1815 99.2   4.6 56.2   0.3 24   3 6.3   1.1 W | 267 10.7   2.0 0.00 0.00 61.6   0.6 100.1   2.8
Gilbeau Ranch 8/9/20 1815 97.7   5.7 51.6   4.2 21   8 2.9   1.3 WSW | 256 6.6   2.8 0.00 0.00 59.6   1.9 100.5   4.1
Linden 8/9/20 1815 96.8   3.3 59.6   1.4 29   2 4.0   1.4 W | 277 8.2   1.7 0.00 0.00 56.8   0.6 98.9   2.7
Live Oak 8/9/20 1815 96.4   5.2 64.4   0.9 35   5 3.5   0.3 W | 274 6.8   0.4 0.00 0.00 58.3   0.2 97.3   0.8
Lockeford 8/9/20 1815 97.6   5.1 52.2   2.0 22   6 4.1   0.3 W | 274 10.5   0.8 0.00 0.00 60.7   1.9 98.7   3.2
Lone Oak-L28 8/9/20 1815 94.2   2.5 60.1   1.7 32   5 4.2   2.0 W | 281 7.3   3.4 0.00 0.00 57.0   0.7 98.8   2.1
Colony 1 8/9/20 1815 98.1   6.7 57.9   1.5 26   8 3.4   1.2 W | 260 7.0   2.5 0.00 0.00 60.0   0.3 100.7   3.5
Colony 2 8/9/20 1815 97.1   6.6 61.7   0.6 31   6 3.0   0.2 SW | 222 5.3   3.9 0.00 0.00 60.5   2.5 99.9   3.5
Sheldon 8/9/20 1815 96.7   5.7 54.6   4.0 25   9 5.3   1.7 SW | 222 10.1   1.7 0.00 0.00 59.3   0.9 100.8   4.5
Sierra Loma-L27 8/9/20 1815 99.5   5.8 61.5   3.7 29   1 4.0   0.2 WSW | 243 7.9   0.2 0.00 0.00 63.0   2.5 101.4   4.1
Simmerhorn 8/9/20 1815 98.4   4.5 50.7   0.7 20   4 - - - - - 60.5   1.1 99.4   3.6
Sloughhouse 8/9/20 1815 98.5   5.3 55.1   4.7 24   0 5.9   0.3 SW | 236 10.5   0.0 0.00 0.00 58.9   0.0 101.6   3.5
5 Wells 8/9/20 1815 99.3   5.5 53.8   0.5 22   4 5.5   0.4 W | 268 8.9   0.3 0.00 0.00 60.2   1.3 99.9   3.5
Max     100.2 64.4 35 6.3 - 10.7 0.00 0.00 63.7 102.9
Avg     97.8 57.2 26 4.3 - 8.1 0.00 - - -
Min     94.2 50.7 20 1.7 - 4.8 0.00 0.00 56.8 97.3

Air Quality (Current)

Map

15 Minute Data